worldprofitassociates.com alexa rank chart, worldprofitassociates.com alexa rank daily changes

worldprofitassociates.com alexa rank chart, worldprofitassociates.com alexa rank daily changes

worldprofitassociates.com
Actual rank:
338 258

RANK HISTORY

Date Rank Diff
2018/02/19 338 258 -388 150
2018/02/18 726 408 +521 328
2018/02/16 205 080 -127 327
2018/02/14 332 407 +16 223
2018/02/13 316 184 -581 747
2018/02/10 897 931 +367 891
2018/02/09 530 040 -24 192
2018/02/06 554 232 -243 464
2018/02/05 797 696 +391 675
2018/02/04 406 021 -527 226
2018/02/03 933 247 +653 155
2018/02/02 280 092 -523 503
2018/02/01 803 595 +298 586
2018/01/30 505 009 -43 885
2018/01/29 548 894 -16 756
2018/01/28 565 650 +22 919
2018/01/27 542 731 -1 952
2018/01/26 544 683 +3 258
2018/01/25 541 425 +19 268
2018/01/24 522 157 +21 077
2018/01/23 501 080 -14 804
2018/01/22 515 884 -5 598
2018/01/21 521 482 +13 854
2018/01/20 507 628 +3 705
2018/01/19 503 923 +20 646
2018/01/18 483 277 +24 521
2018/01/17 458 756 +6 942
2018/01/16 451 814 -7 704
2018/01/15 459 518 +8 055
2018/01/14 451 463 -18 882
2018/01/13 470 345 -18 405
2018/01/12 488 750 -2 777
2018/01/11 491 527 +9 907
2018/01/10 481 620 +4 973
2018/01/09 476 647 -8 172
2018/01/08 484 819 -1 339
2018/01/07 486 158 +1 578
2018/01/06 484 580 +10 544
2018/01/05 474 036 +18 249
2018/01/04 455 787 +18 542
2018/01/03 437 245 -3 862
2018/01/02 441 107 +15 643
2018/01/01 425 464 -5 015
2017/12/31 430 479 -694
2017/12/30 431 173 +449
2017/12/29 430 724 +2 762
2017/12/28 427 962 -1 385
2017/12/27 429 347 +8 558
2017/12/26 420 789 -9 371
2017/12/25 430 160 -1 996
2017/12/24 432 156 -6 416
2017/12/23 438 572 -1 867
2017/12/22 440 439 +1 495
2017/12/21 438 944

WIDGET FOR YOUR SITE

DOMAINS WITH THE NEAREST RANK

Domain Rank
music-berbere.com 338 253
scena.hr 338 254
surroundinggame.com 338 255
kurdsubtitle.net 338 256
icglisaw.com 338 257
worldprofitassociates.com 338 258
nes-g4-2018.wikispaces.com 338 259
xosara.com 338 260
tablonia.com 338 261
chelopera.ru 338 262
istanamatematika.com 338 263

DOMAINS WITH THE NEAREST RANK BY TLD .com

Domain Rank
umarani.com 338 244
tamatalk.com 338 245
music-berbere.com 338 253
surroundinggame.com 338 255
icglisaw.com 338 257
worldprofitassociates.com 338 258
xosara.com 338 260
tablonia.com 338 261
istanamatematika.com 338 263
internetpk.com 338 267
milwao.com 338 268